| time (UTC) | temp F | wind direction | speed knots | gust knots | rain 1hr in | rain 24hr in | rain mn in | humidity % | barometer mb |
| 20260906104108 | 61 | 289 | 0.0 | 0.0 | 0.00 | 0.00 | 0.00 | 99 | 1014.0 |
| 20260906103606 | 61 | 282 | 0.0 | 0.0 | 0.00 | 0.00 | 0.00 | 99 | 1014.0 |
| 20260906103101 | 61 | 252 | 0.0 | 0.0 | 0.00 | 0.00 | 0.00 | 99 | 1013.9 |
| 20260906102555 | 61 | 248 | 0.0 | 0.0 | 0.00 | 0.00 | 0.00 | 99 | 1013.8 |
| 20260906102050 | 61 | 254 | 0.0 | 0.0 | 0.00 | 0.00 | 0.00 | 99 | 1013.6 |
| 20260906101545 | 61 | 255 | 0.0 | 0.0 | 0.00 | 0.00 | 0.00 | 99 | 1013.8 |
| 20260906101040 | 61 | 254 | 0.0 | 0.0 | 0.00 | 0.00 | 0.00 | 99 | 1013.7 |
| 20260906100535 | 61 | 254 | 0.0 | 0.0 | 0.00 | 0.00 | 0.00 | 99 | 1013.6 |
| 20260906100030 | 61 | 254 | 0.0 | 0.0 | 0.00 | 0.00 | 0.00 | 99 | 1013.7 |
| 20260906095524 | 61 | 253 | 0.0 | 0.0 | 0.00 | 0.00 | 0.00 | 99 | 1013.7 |
| 20260906095020 | 62 | 253 | 0.0 | 0.0 | 0.00 | 0.00 | 0.00 | 99 | 1013.6 |
| 20260906094518 | 62 | 253 | 0.0 | 0.0 | 0.00 | 0.00 | 0.00 | 98 | 1013.3 |
| 20260906094009 | 62 | 258 | 0.0 | 0.0 | 0.00 | 0.00 | 0.00 | 98 | 1013.4 |
| 20260906093505 | 62 | 258 | 0.0 | 0.0 | 0.00 | 0.00 | 0.00 | 98 | 1013.3 |
| 20260906092959 | 62 | 258 | 0.0 | 0.0 | 0.00 | 0.00 | 0.00 | 98 | 1013.3 |
| 20260906092453 | 63 | 257 | 0.0 | 0.0 | 0.00 | 0.00 | 0.00 | 98 | 1013.4 |
| 20260906091948 | 63 | 257 | 0.0 | 0.0 | 0.00 | 0.00 | 0.00 | 98 | 1013.8 |
| 20260906091444 | 63 | 259 | 0.0 | 0.0 | 0.00 | 0.00 | 0.00 | 97 | 1013.6 |
| 20260906090940 | 63 | 213 | 0.0 | 0.0 | 0.00 | 0.00 | 0.00 | 97 | 1013.6 |
| 20260906090436 | 63 | 251 | 0.0 | 0.0 | 0.00 | 0.00 | 0.00 | 97 | 1013.3 |
| 20260906085930 | 63 | 201 | 0.0 | 0.0 | 0.00 | 0.00 | 0.00 | 97 | 1013.2 |
| 20260906085430 | 64 | 250 | 0.0 | 0.0 | 0.00 | 0.00 | 0.00 | 97 | 1013.3 |
| 20260906084929 | 64 | 270 | 0.0 | 0.0 | 0.00 | 0.00 | 0.00 | 97 | 1013.3 |
| 20260906084424 | 64 | 218 | 0.0 | 0.0 | 0.00 | 0.00 | 0.00 | 97 | 1013.2 |
| 20260906083923 | 64 | 191 | 0.0 | 0.0 | 0.00 | 0.00 | 0.00 | 97 | 1013.2 |
| 20260906083418 | 64 | 294 | 0.0 | 0.0 | 0.00 | 0.00 | 0.00 | 97 | 1013.1 |
| 20260906082918 | 64 | 353 | 0.9 | 0.9 | 0.00 | 0.00 | 0.00 | 97 | 1013.1 |
| 20260906082413 | 64 | 310 | 0.0 | 0.0 | 0.00 | 0.00 | 0.00 | 97 | 1013.0 |
| 20260906081909 | 64 | 21 | 0.0 | 0.0 | 0.00 | 0.00 | 0.00 | 97 | 1013.0 |
| 20260906081404 | 64 | 23 | 0.0 | 0.0 | 0.00 | 0.00 | 0.00 | 97 | 1012.9 |
| 20260906080900 | 64 | 319 | 0.0 | 0.0 | 0.00 | 0.00 | 0.00 | 97 | 1013.2 |
| 20260906080357 | 64 | 26 | 0.9 | 1.7 | 0.00 | 0.00 | 0.00 | 97 | 1013.1 |
| 20260906075855 | 65 | 351 | 0.0 | 0.0 | 0.00 | 0.00 | 0.00 | 97 | 1012.8 |
| 20260906075350 | 65 | 61 | 0.0 | 0.0 | 0.00 | 0.00 | 0.00 | 97 | 1013.0 |
| 20260906074846 | 65 | 310 | 0.0 | 0.0 | 0.00 | 0.00 | 0.00 | 96 | 1012.9 |
| 20260906074346 | 65 | 306 | 0.0 | 0.0 | 0.00 | 0.00 | 0.00 | 96 | 1013.3 |
| 20260906073845 | 65 | 301 | 0.0 | 0.0 | 0.00 | 0.00 | 0.00 | 96 | 1013.0 |
| 20260906073345 | 65 | 333 | 0.0 | 0.0 | 0.00 | 0.00 | 0.00 | 95 | 1012.9 |
| 20260906072842 | 66 | 320 | 0.0 | 0.0 | 0.00 | 0.00 | 0.00 | 95 | 1012.7 |
| 20260906072337 | 66 | 124 | 0.9 | 1.7 | 0.00 | 0.00 | 0.00 | 95 | 1012.8 |
| 20260906071833 | 66 | 115 | 0.9 | 0.9 | 0.00 | 0.00 | 0.00 | 95 | 1012.7 |
| 20260906071328 | 66 | 76 | 0.9 | 1.7 | 0.00 | 0.00 | 0.00 | 95 | 1012.7 |
| 20260906070824 | 66 | 9 | 0.0 | 0.9 | 0.00 | 0.00 | 0.00 | 95 | 1012.8 |
| 20260906070319 | 66 | 33 | 0.9 | 0.9 | 0.00 | 0.00 | 0.00 | 95 | 1012.7 |
| 20260906065814 | 66 | 327 | 0.9 | 0.9 | 0.00 | 0.00 | 0.00 | 95 | 1012.8 |
| 20260906065309 | 66 | 23 | 0.0 | 0.9 | 0.00 | 0.00 | 0.00 | 95 | 1012.9 |
| 20260906064805 | 66 | 63 | 1.7 | 1.7 | 0.00 | 0.00 | 0.00 | 95 | 1012.8 |
| 20260906064301 | 66 | 35 | 1.7 | 1.7 | 0.00 | 0.00 | 0.00 | 95 | 1013.1 |
| 20260906063801 | 67 | 162 | 0.0 | 0.9 | 0.00 | 0.00 | 0.00 | 95 | 1013.1 |
| 20260906063256 | 67 | 104 | 0.0 | 0.0 | 0.00 | 0.00 | 0.00 | 95 | 1013.0 |
| 20260906062751 | 67 | 66 | 1.7 | 1.7 | 0.00 | 0.00 | 0.00 | 95 | 1013.1 |
| 20260906062250 | 67 | 17 | 0.9 | 1.7 | 0.00 | 0.00 | 0.00 | 96 | 1013.1 |
| 20260906061746 | 67 | 58 | 0.9 | 1.7 | 0.00 | 0.00 | 0.00 | 95 | 1013.0 |
| 20260906061243 | 67 | 173 | 1.7 | 1.7 | 0.00 | 0.00 | 0.00 | 95 | 1012.9 |
| 20260906060737 | 67 | 130 | 0.0 | 0.0 | 0.00 | 0.00 | 0.00 | 95 | 1012.9 |
| 20260906060235 | 67 | 318 | 0.0 | 0.0 | 0.00 | 0.00 | 0.00 | 95 | 1012.7 |
| 20260906055731 | 68 | 17 | 0.0 | 0.9 | 0.00 | 0.00 | 0.00 | 95 | 1012.7 |
| 20260906055226 | 68 | 317 | 0.0 | 0.9 | 0.00 | 0.00 | 0.00 | 95 | 1012.8 |
| 20260906054721 | 68 | 53 | 0.9 | 0.9 | 0.00 | 0.00 | 0.00 | 96 | 1012.8 |
| 20260906054216 | 68 | 104 | 0.0 | 0.9 | 0.00 | 0.00 | 0.00 | 96 | 1012.7 |
| 20260906053713 | 68 | 88 | 0.9 | 2.6 | 0.00 | 0.00 | 0.00 | 96 | 1012.6 |
| 20260906053208 | 68 | 332 | 0.0 | 0.0 | 0.00 | 0.00 | 0.00 | 96 | 1012.5 |
| 20260906052703 | 68 | 7 | 0.9 | 0.9 | 0.00 | 0.00 | 0.00 | 96 | 1012.6 |
| 20260906052159 | 69 | 27 | 0.0 | 0.0 | 0.00 | 0.00 | 0.00 | 96 | 1012.3 |
| 20260906051656 | 69 | 293 | 0.0 | 0.0 | 0.00 | 0.00 | 0.00 | 96 | 1012.4 |
| 20260906051155 | 69 | 98 | 0.0 | 0.9 | 0.00 | 0.00 | 0.00 | 96 | 1012.4 |
| 20260906050651 | 69 | 187 | 0.0 | 0.0 | 0.00 | 0.00 | 0.00 | 96 | 1012.5 |
| 20260906050146 | 69 | 131 | 0.0 | 0.9 | 0.00 | 0.00 | 0.00 | 96 | 1012.5 |
| 20260906045644 | 70 | 20 | 0.0 | 0.9 | 0.00 | 0.00 | 0.00 | 96 | 1012.4 |
| 20260906045140 | 70 | 163 | 0.9 | 1.7 | 0.00 | 0.00 | 0.00 | 96 | 1012.4 |
| 20260906044636 | 70 | 351 | 0.9 | 0.9 | 0.00 | 0.00 | 0.00 | 97 | 1012.3 |
| 20260906044131 | 70 | 306 | 0.0 | 0.0 | 0.00 | 0.00 | 0.00 | 96 | 1012.4 |
| 20260906043627 | 71 | 270 | 0.0 | 0.0 | 0.00 | 0.00 | 0.00 | 96 | 1012.3 |
| 20260906043122 | 71 | 287 | 0.0 | 0.0 | 0.00 | 0.00 | 0.00 | 96 | 1012.2 |
| 20260906042621 | 71 | 201 | 0.0 | 0.9 | 0.00 | 0.00 | 0.00 | 95 | 1012.2 |
| 20260906042115 | 71 | 324 | 0.9 | 0.9 | 0.00 | 0.00 | 0.00 | 95 | 1012.1 |
| 20260906041612 | 71 | 267 | 0.0 | 0.0 | 0.00 | 0.00 | 0.00 | 95 | 1012.3 |
| 20260906041106 | 71 | 292 | 0.0 | 0.0 | 0.00 | 0.00 | 0.00 | 95 | 1012.3 |
| 20260906040602 | 71 | 291 | 0.0 | 0.0 | 0.00 | 0.00 | 0.00 | 95 | 1012.4 |
| 20260906040057 | 71 | 210 | 0.0 | 0.0 | 0.00 | 0.01 | 0.01 | 94 | 1012.3 |
| 20260906035552 | 71 | 218 | 0.0 | 0.0 | 0.00 | 0.01 | 0.01 | 94 | 1012.0 |
| 20260906035048 | 71 | 323 | 0.0 | 0.0 | 0.00 | 0.01 | 0.01 | 94 | 1012.3 |
| 20260906034548 | 71 | 322 | 0.0 | 0.0 | 0.00 | 0.01 | 0.01 | 94 | 1012.2 |
| 20260906034037 | 71 | 322 | 0.0 | 0.0 | 0.00 | 0.01 | 0.01 | 94 | 1012.2 |
| 20260906033532 | 71 | 331 | 0.0 | 0.0 | 0.00 | 0.01 | 0.01 | 94 | 1012.1 |
| 20260906033027 | 71 | 273 | 0.0 | 0.0 | 0.00 | 0.01 | 0.01 | 94 | 1012.0 |
| 20260906032524 | 71 | 285 | 0.0 | 0.0 | 0.00 | 0.01 | 0.01 | 94 | 1012.0 |
| 20260906032018 | 71 | 59 | 0.0 | 0.0 | 0.00 | 0.01 | 0.01 | 94 | 1012.0 |
| 20260906031514 | 71 | 318 | 0.0 | 0.0 | 0.00 | 0.01 | 0.01 | 93 | 1012.0 |
| 20260906031010 | 71 | 144 | 0.0 | 0.9 | 0.00 | 0.01 | 0.01 | 93 | 1011.9 |
| 20260906030509 | 72 | 228 | 0.0 | 0.0 | 0.00 | 0.01 | 0.01 | 93 | 1012.2 |
| 20260906030008 | 72 | 212 | 0.0 | 0.0 | 0.00 | 0.01 | 0.01 | 93 | 1012.1 |
| 20260906025508 | 72 | 214 | 0.0 | 0.0 | 0.00 | 0.01 | 0.01 | 93 | 1012.1 |
| 20260906025006 | 72 | 179 | 0.0 | 0.9 | 0.00 | 0.01 | 0.01 | 93 | 1011.8 |
| 20260906024501 | 72 | 204 | 0.0 | 0.0 | 0.00 | 0.01 | 0.01 | 93 | 1012.0 |
| 20260906023956 | 72 | 297 | 0.0 | 0.0 | 0.00 | 0.01 | 0.01 | 93 | 1011.9 |
| 20260906023453 | 72 | 297 | 0.0 | 0.0 | 0.00 | 0.01 | 0.01 | 92 | 1012.0 |
| 20260906022952 | 72 | 307 | 0.0 | 0.0 | 0.00 | 0.01 | 0.01 | 93 | 1012.1 |
| 20260906022443 | 72 | 294 | 0.0 | 0.0 | 0.00 | 0.01 | 0.01 | 92 | 1011.7 |
| 20260906021937 | 72 | 25 | 0.9 | 0.9 | 0.00 | 0.01 | 0.01 | 92 | 1011.9 |
| 20260906021432 | 72 | 40 | 0.0 | 0.9 | 0.00 | 0.01 | 0.01 | 92 | 1011.8 |
| 20260906020926 | 72 | 64 | 0.0 | 0.9 | 0.00 | 0.01 | 0.01 | 92 | 1011.9 |
| 20260906020421 | 72 | 15 | 0.0 | 0.9 | 0.00 | 0.01 | 0.01 | 92 | 1011.7 |
| 20260906015920 | 72 | 44 | 0.0 | 0.0 | 0.00 | 0.01 | 0.01 | 92 | 1011.8 |
| 20260906015415 | 72 | 143 | 0.0 | 0.0 | 0.00 | 0.01 | 0.01 | 91 | 1012.0 |
| 20260906014915 | 72 | 313 | 0.9 | 0.9 | 0.00 | 0.01 | 0.01 | 91 | 1011.6 |
| 20260906014414 | 72 | 167 | 0.0 | 0.0 | 0.00 | 0.01 | 0.01 | 91 | 1011.5 |
| 20260906013911 | 72 | 63 | 0.0 | 0.0 | 0.00 | 0.01 | 0.01 | 91 | 1011.5 |
| 20260906013406 | 73 | 67 | 0.0 | 0.0 | 0.00 | 0.01 | 0.01 | 91 | 1011.6 |
| 20260906012902 | 73 | 48 | 0.0 | 0.9 | 0.00 | 0.01 | 0.01 | 91 | 1011.5 |
| 20260906012356 | 73 | 338 | 0.0 | 0.9 | 0.00 | 0.01 | 0.01 | 91 | 1011.3 |
| 20260906011855 | 73 | 55 | 0.0 | 0.9 | 0.00 | 0.01 | 0.01 | 91 | 1011.2 |
| 20260906011350 | 73 | 6 | 0.9 | 0.9 | 0.00 | 0.01 | 0.01 | 90 | 1011.3 |
| 20260906010846 | 73 | 18 | 0.0 | 0.0 | 0.00 | 0.01 | 0.01 | 90 | 1011.0 |
| 20260906010342 | 73 | 6 | 1.7 | 2.6 | 0.00 | 0.01 | 0.01 | 90 | 1011.3 |
| 20260906005838 | 73 | 31 | 0.9 | 1.7 | 0.00 | 0.01 | 0.01 | 90 | 1011.1 |
| 20260906005337 | 73 | 306 | 0.0 | 0.0 | 0.00 | 0.01 | 0.01 | 90 | 1011.2 |
| 20260906004836 | 73 | 19 | 0.9 | 1.7 | 0.00 | 0.01 | 0.01 | 90 | 1011.2 |
| 20260906004336 | 73 | 40 | 0.9 | 1.7 | 0.00 | 0.01 | 0.01 | 90 | 1011.1 |
| 20260906003831 | 73 | 328 | 0.0 | 0.9 | 0.00 | 0.01 | 0.01 | 90 | 1011.1 |
| 20260906003326 | 73 | 119 | 1.7 | 2.6 | 0.00 | 0.01 | 0.01 | 90 | 1010.9 |
| 20260906002822 | 73 | 20 | 1.7 | 1.7 | 0.00 | 0.01 | 0.01 | 90 | 1010.9 |
| 20260906002321 | 74 | 111 | 0.9 | 0.9 | 0.00 | 0.01 | 0.01 | 90 | 1010.9 |
| 20260906001817 | 73 | 355 | 0.9 | 0.9 | 0.00 | 0.01 | 0.01 | 90 | 1010.8 |
| 20260906001312 | 73 | 54 | 0.0 | 0.9 | 0.00 | 0.01 | 0.01 | 91 | 1010.8 |
| 20260906000808 | 73 | 85 | 0.9 | 0.9 | 0.00 | 0.01 | 0.01 | 91 | 1010.7 |
| 20260906000303 | 73 | 87 | 1.7 | 1.7 | 0.00 | 0.01 | 0.01 | 91 | 1010.5 |
| 20260905235757 | 74 | 317 | 0.0 | 0.0 | 0.00 | 0.01 | 0.01 | 91 | 1010.5 |
| 20260905235257 | 74 | 350 | 0.9 | 0.9 | 0.00 | 0.01 | 0.01 | 91 | 1010.5 |
| 20260905234752 | 74 | 70 | 0.0 | 0.9 | 0.00 | 0.01 | 0.01 | 90 | 1010.4 |
| 20260905234247 | 75 | 11 | 0.9 | 0.9 | 0.00 | 0.01 | 0.01 | 90 | 1010.3 |
| 20260905233742 | 75 | 83 | 0.0 | 0.9 | 0.00 | 0.01 | 0.01 | 90 | 1010.4 |
| 20260905233241 | 75 | 355 | 0.0 | 0.9 | 0.00 | 0.01 | 0.01 | 90 | 1010.4 |
| 20260905232736 | 75 | 273 | 0.9 | 0.9 | 0.00 | 0.01 | 0.01 | 90 | 1010.4 |
| 20260905232232 | 75 | 59 | 1.7 | 1.7 | 0.00 | 0.01 | 0.01 | 90 | 1010.4 |
| 20260905231728 | 76 | 265 | 0.9 | 0.9 | 0.00 | 0.01 | 0.01 | 91 | 1010.3 |
| 20260905231223 | 76 | 24 | 0.9 | 0.9 | 0.00 | 0.01 | 0.01 | 90 | 1010.4 |
| 20260905230719 | 76 | 45 | 1.7 | 2.6 | 0.00 | 0.01 | 0.01 | 90 | 1010.3 |
| 20260905230216 | 76 | 78 | 0.0 | 0.9 | 0.00 | 0.01 | 0.01 | 90 | 1010.3 |
| 20260905225710 | 76 | 16 | 0.9 | 1.7 | 0.00 | 0.01 | 0.01 | 90 | 1010.1 |
| 20260905225205 | 77 | 46 | 0.0 | 0.9 | 0.00 | 0.01 | 0.01 | 90 | 1010.0 |
| 20260905224704 | 77 | 53 | 2.6 | 3.5 | 0.00 | 0.01 | 0.01 | 90 | 1010.0 |
| 20260905224200 | 77 | 318 | 0.9 | 0.9 | 0.00 | 0.01 | 0.01 | 89 | 1010.0 |
| 20260905223656 | 78 | 92 | 2.6 | 5.2 | 0.00 | 0.01 | 0.01 | 88 | 1009.9 |
| 20260905223153 | 78 | 346 | 0.9 | 0.9 | 0.00 | 0.01 | 0.01 | 88 | 1009.8 |
| 20260905222648 | 79 | 12 | 0.9 | 1.7 | 0.00 | 0.01 | 0.01 | 87 | 1009.7 |
| 20260905222143 | 79 | 89 | 0.9 | 0.9 | 0.00 | 0.01 | 0.01 | 86 | 1009.7 |
| 20260905221638 | 79 | 5 | 0.9 | 0.9 | 0.00 | 0.01 | 0.01 | 87 | 1009.8 |
| 20260905221135 | 79 | 63 | 1.7 | 1.7 | 0.00 | 0.01 | 0.01 | 87 | 1009.5 |
| 20260905220631 | 79 | 358 | 1.7 | 1.7 | 0.00 | 0.01 | 0.01 | 86 | 1009.4 |
| 20260905220127 | 80 | 358 | 0.9 | 0.9 | 0.00 | 0.01 | 0.01 | 85 | 1009.4 |
| 20260905215626 | 80 | 323 | 0.9 | 0.9 | 0.00 | 0.01 | 0.01 | 85 | 1009.2 |
| 20260905215122 | 79 | 284 | 0.0 | 0.0 | 0.00 | 0.01 | 0.01 | 87 | 1009.4 |
| 20260905214618 | 80 | 329 | 0.9 | 0.9 | 0.00 | 0.01 | 0.01 | 85 | 1009.5 |
| 20260905214118 | 80 | 88 | 1.7 | 2.6 | 0.00 | 0.01 | 0.01 | 84 | 1009.2 |
| 20260905213613 | 83 | 355 | 0.9 | 0.9 | 0.00 | 0.01 | 0.01 | 81 | 1009.2 |
| 20260905213108 | 85 | 292 | 0.9 | 1.7 | 0.00 | 0.01 | 0.01 | 76 | 1009.2 |
| 20260905212603 | 84 | 295 | 0.0 | 0.9 | 0.00 | 0.01 | 0.01 | 77 | 1009.2 |
| 20260905212102 | 83 | 139 | 0.9 | 0.9 | 0.00 | 0.01 | 0.01 | 79 | 1009.2 |
| 20260905211558 | 81 | 249 | 0.0 | 0.9 | 0.00 | 0.01 | 0.01 | 83 | 1009.3 |
| 20260905211053 | 81 | 336 | 0.9 | 0.9 | 0.00 | 0.01 | 0.01 | 83 | 1009.3 |
| 20260905210549 | 80 | 283 | 0.0 | 0.9 | 0.00 | 0.01 | 0.01 | 84 | 1009.4 |
| 20260905210044 | 80 | 293 | 0.0 | 0.0 | 0.00 | 0.01 | 0.01 | 83 | 1009.4 |
| 20260905205543 | 82 | 334 | 0.9 | 0.9 | 0.00 | 0.01 | 0.01 | 81 | 1009.2 |
| 20260905205042 | 83 | 307 | 0.9 | 0.9 | 0.00 | 0.01 | 0.01 | 79 | 1009.3 |
| 20260905204537 | 83 | 55 | 0.9 | 0.9 | 0.00 | 0.01 | 0.01 | 80 | 1009.3 |
| 20260905204033 | 83 | 29 | 0.9 | 1.7 | 0.00 | 0.01 | 0.01 | 79 | 1009.1 |
| 20260905203532 | 82 | 168 | 0.0 | 0.9 | 0.00 | 0.01 | 0.01 | 80 | 1009.2 |
| 20260905203028 | 84 | 137 | 1.7 | 2.6 | 0.00 | 0.01 | 0.01 | 77 | 1009.2 |
| 20260905202523 | 84 | 298 | 2.6 | 3.5 | 0.00 | 0.01 | 0.01 | 78 | 1009.1 |
| 20260905202018 | 85 | 101 | 0.9 | 1.7 | 0.00 | 0.01 | 0.01 | 77 | 1009.2 |
| 20260905201514 | 82 | 321 | 1.7 | 1.7 | 0.00 | 0.01 | 0.01 | 80 | 1009.2 |
| 20260905201014 | 84 | 296 | 0.9 | 0.9 | 0.00 | 0.01 | 0.01 | 80 | 1009.0 |
| 20260905200509 | 83 | 53 | 1.7 | 2.6 | 0.00 | 0.01 | 0.01 | 80 | 1009.4 |
| 20260905200008 | 84 | 198 | 1.7 | 2.6 | 0.00 | 0.01 | 0.01 | 79 | 1009.4 |
| 20260905195502 | 86 | 297 | 0.9 | 0.9 | 0.00 | 0.01 | 0.01 | 76 | 1009.2 |
| 20260905194958 | 83 | 289 | 0.9 | 0.9 | 0.00 | 0.01 | 0.01 | 81 | 1009.4 |
| 20260905194452 | 82 | 314 | 0.0 | 0.0 | 0.00 | 0.01 | 0.01 | 82 | 1009.3 |
| 20260905193946 | 83 | 266 | 0.0 | 0.0 | 0.00 | 0.01 | 0.01 | 83 | 1009.3 |
| 20260905193441 | 84 | 263 | 0.9 | 0.9 | 0.00 | 0.01 | 0.01 | 77 | 1009.7 |
| 20260905192936 | 83 | 85 | 0.9 | 0.9 | 0.00 | 0.01 | 0.01 | 82 | 1009.4 |
| 20260905192431 | 82 | 308 | 0.0 | 0.0 | 0.00 | 0.01 | 0.01 | 82 | 1009.4 |
| 20260905191926 | 83 | 21 | 0.9 | 0.9 | 0.00 | 0.01 | 0.01 | 80 | 1009.5 |
| 20260905191425 | 84 | 290 | 0.9 | 0.9 | 0.00 | 0.01 | 0.01 | 78 | 1009.4 |
| 20260905190920 | 85 | 38 | 1.7 | 1.7 | 0.00 | 0.01 | 0.01 | 77 | 1009.4 |
| 20260905190418 | 85 | 246 | 0.9 | 0.9 | 0.00 | 0.01 | 0.01 | 76 | 1009.6 |
| 20260905185917 | 85 | 128 | 2.6 | 2.6 | 0.00 | 0.01 | 0.01 | 76 | 1009.5 |
| 20260905185412 | 84 | 289 | 0.0 | 0.9 | 0.00 | 0.01 | 0.01 | 78 | 1009.3 |
| 20260905184910 | 84 | 205 | 0.0 | 0.0 | 0.00 | 0.01 | 0.01 | 78 | 1009.5 |
| 20260905184410 | 84 | 80 | 0.9 | 0.9 | 0.00 | 0.01 | 0.01 | 78 | 1009.7 |
| 20260905183909 | 85 | 263 | 0.0 | 0.9 | 0.00 | 0.01 | 0.01 | 77 | 1009.6 |
| 20260905183405 | 84 | 54 | 0.9 | 0.9 | 0.00 | 0.01 | 0.01 | 77 | 1009.6 |
| 20260905182859 | 84 | 329 | 1.7 | 1.7 | 0.00 | 0.01 | 0.01 | 79 | 1009.7 |
| 20260905182353 | 83 | 80 | 0.9 | 0.9 | 0.00 | 0.01 | 0.01 | 78 | 1009.5 |
| 20260905181849 | 84 | 291 | 0.0 | 0.9 | 0.00 | 0.01 | 0.01 | 79 | 1009.5 |
| 20260905181348 | 84 | 286 | 1.7 | 1.7 | 0.00 | 0.01 | 0.01 | 80 | 1009.6 |
| 20260905180847 | 85 | 194 | 0.9 | 1.7 | 0.00 | 0.01 | 0.01 | 76 | 1009.6 |
| 20260905180342 | 84 | 283 | 0.9 | 0.9 | 0.00 | 0.01 | 0.01 | 76 | 1009.8 |
| 20260905175837 | 84 | 281 | 0.0 | 0.0 | 0.00 | 0.01 | 0.01 | 81 | 1009.8 |
| 20260905175331 | 83 | 15 | 0.9 | 0.9 | 0.00 | 0.01 | 0.01 | 81 | 1009.8 |
| 20260905174827 | 83 | 262 | 0.0 | 0.0 | 0.00 | 0.01 | 0.01 | 81 | 1009.7 |
| 20260905174322 | 83 | 247 | 0.0 | 0.0 | 0.00 | 0.01 | 0.01 | 82 | 1009.9 |
| 20260905173813 | 83 | 100 | 0.0 | 0.0 | 0.00 | 0.01 | 0.01 | 81 | 1009.8 |
| 20260905173308 | 83 | 292 | 0.0 | 0.0 | 0.00 | 0.01 | 0.01 | 83 | 1009.7 |
| 20260905172808 | 83 | 246 | 0.0 | 0.0 | 0.00 | 0.01 | 0.01 | 81 | 1009.8 |
| 20260905172306 | 85 | 221 | 0.9 | 1.7 | 0.00 | 0.01 | 0.01 | 78 | 1009.9 |
| 20260905171802 | 84 | 223 | 0.0 | 0.0 | 0.00 | 0.01 | 0.01 | 78 | 1009.7 |
| 20260905171259 | 83 | 294 | 0.0 | 0.9 | 0.00 | 0.01 | 0.01 | 83 | 1009.9 |
| 20260905170755 | 82 | 200 | 0.0 | 0.0 | 0.00 | 0.01 | 0.01 | 82 | 1009.7 |
| 20260905170250 | 83 | 348 | 0.0 | 0.9 | 0.00 | 0.01 | 0.01 | 82 | 1010.2 |
| 20260905165749 | 82 | 287 | 0.0 | 0.0 | 0.00 | 0.01 | 0.01 | 85 | 1009.8 |
| 20260905165245 | 82 | 287 | 0.0 | 0.0 | 0.00 | 0.01 | 0.01 | 86 | 1010.3 |
| 20260905164740 | 82 | 157 | 0.9 | 0.9 | 0.00 | 0.01 | 0.01 | 83 | 1010.2 |
| 20260905164235 | 82 | 265 | 0.0 | 0.0 | 0.00 | 0.01 | 0.01 | 81 | 1009.9 |
| 20260905163731 | 82 | 275 | 0.0 | 0.0 | 0.00 | 0.01 | 0.01 | 85 | 1010.1 |
| 20260905163227 | 82 | 234 | 0.0 | 0.0 | 0.00 | 0.01 | 0.01 | 83 | 1010.0 |
| 20260905162722 | 81 | 257 | 0.0 | 0.0 | 0.00 | 0.01 | 0.01 | 84 | 1010.1 |
| 20260905162222 | 81 | 265 | 0.0 | 0.0 | 0.00 | 0.01 | 0.01 | 87 | 1010.0 |
| 20260905161717 | 80 | 209 | 0.0 | 0.0 | 0.00 | 0.01 | 0.01 | 86 | 1010.2 |
| 20260905161215 | 80 | 258 | 0.9 | 0.9 | 0.00 | 0.01 | 0.01 | 86 | 1010.2 |
| 20260905160713 | 80 | 217 | 0.9 | 0.9 | 0.00 | 0.01 | 0.01 | 87 | 1010.1 |
| 20260905160208 | 80 | 341 | 0.0 | 0.9 | 0.00 | 0.01 | 0.01 | 86 | 1010.0 |
| 20260905155708 | 79 | 290 | 1.7 | 1.7 | 0.00 | 0.01 | 0.01 | 88 | 1010.0 |
| 20260905155207 | 79 | 223 | 0.9 | 1.7 | 0.00 | 0.01 | 0.01 | 88 | 1010.1 |
| 20260905154656 | 79 | 253 | 0.9 | 0.9 | 0.00 | 0.01 | 0.01 | 89 | 1010.3 |
| 20260905154151 | 78 | 241 | 1.7 | 1.7 | 0.00 | 0.01 | 0.01 | 89 | 1009.8 |
| 20260905153647 | 78 | 258 | 0.0 | 0.9 | 0.00 | 0.01 | 0.01 | 88 | 1010.0 |
| 20260905153143 | 78 | 271 | 0.0 | 0.9 | 0.00 | 0.01 | 0.01 | 88 | 1010.1 |
| 20260905152637 | 79 | 213 | 0.0 | 0.9 | 0.00 | 0.01 | 0.01 | 87 | 1010.1 |
| 20260905152132 | 79 | 345 | 0.9 | 0.9 | 0.00 | 0.01 | 0.01 | 88 | 1010.0 |
| 20260905151627 | 78 | 264 | 0.0 | 0.0 | 0.00 | 0.01 | 0.01 | 90 | 1010.1 |
| 20260905151123 | 77 | 304 | 0.0 | 0.0 | 0.00 | 0.01 | 0.01 | 91 | 1010.0 |
| 20260905150618 | 77 | 324 | 0.9 | 1.7 | 0.00 | 0.01 | 0.01 | 91 | 1009.9 |
| 20260905150116 | 77 | 15 | 0.9 | 1.7 | 0.00 | 0.01 | 0.01 | 92 | 1010.0 |
| 20260905145614 | 77 | 59 | 0.9 | 0.9 | 0.00 | 0.01 | 0.01 | 91 | 1010.1 |
| 20260905145113 | 77 | 229 | 0.0 | 0.0 | 0.00 | 0.01 | 0.01 | 90 | 1009.9 |
| 20260905144609 | 78 | 201 | 0.0 | 0.9 | 0.00 | 0.01 | 0.01 | 90 | 1009.9 |
| 20260905144108 | 77 | 207 | 0.0 | 0.9 | 0.00 | 0.01 | 0.01 | 90 | 1010.0 |
| 20260905143608 | 77 | 306 | 0.0 | 0.0 | 0.00 | 0.01 | 0.01 | 91 | 1009.9 |
| 20260905143103 | 77 | 140 | 0.0 | 0.0 | 0.00 | 0.01 | 0.01 | 90 | 1010.4 |
| 20260905142601 | 78 | 190 | 1.7 | 1.7 | 0.00 | 0.01 | 0.01 | 90 | 1010.2 |
| 20260905142056 | 78 | 232 | 0.0 | 0.0 | 0.00 | 0.01 | 0.01 | 90 | 1010.1 |
| 20260905141555 | 77 | 38 | 0.9 | 0.9 | 0.00 | 0.01 | 0.01 | 92 | 1010.0 |
| 20260905141052 | 75 | 175 | 0.0 | 0.9 | 0.00 | 0.01 | 0.01 | 94 | 1009.9 |
| 20260905140548 | 75 | 214 | 0.0 | 0.0 | 0.00 | 0.01 | 0.01 | 95 | 1010.1 |
| 20260905140046 | 75 | 248 | 0.0 | 0.0 | 0.00 | 0.01 | 0.01 | 96 | 1010.1 |
| 20260905135542 | 75 | 357 | 0.9 | 1.7 | 0.00 | 0.01 | 0.01 | 97 | 1010.1 |
| 20260905135036 | 74 | 19 | 0.0 | 0.0 | 0.00 | 0.01 | 0.01 | 97 | 1010.0 |
| 20260905134531 | 74 | 316 | 0.0 | 0.9 | 0.00 | 0.01 | 0.01 | 98 | 1010.1 |
| 20260905134030 | 74 | 42 | 0.0 | 0.0 | 0.00 | 0.01 | 0.01 | 98 | 1010.0 |
| 20260905133525 | 73 | 214 | 0.0 | 0.0 | 0.00 | 0.01 | 0.01 | 99 | 1009.8 |
| 20260905133020 | 73 | 125 | 0.0 | 0.0 | 0.00 | 0.01 | 0.01 | 99 | 1009.6 |
| 20260905132520 | 73 | 254 | 0.0 | 0.0 | 0.00 | 0.01 | 0.01 | 99 | 1009.8 |
| 20260905132020 | 73 | 322 | 0.9 | 0.9 | 0.00 | 0.01 | 0.01 | 99 | 1009.8 |
| 20260905131515 | 72 | 299 | 0.0 | 0.0 | 0.00 | 0.01 | 0.01 | 99 | 1009.9 |
| 20260905131011 | 72 | 57 | 0.9 | 0.9 | 0.00 | 0.01 | 0.01 | 99 | 1009.9 |
| 20260905130510 | 72 | 186 | 0.0 | 0.0 | 0.00 | 0.01 | 0.01 | 99 | 1009.6 |
| 20260905130005 | 72 | 6 | 0.9 | 0.9 | 0.00 | 0.01 | 0.01 | 99 | 1009.8 |
| 20260905125459 | 72 | 96 | 0.9 | 0.9 | 0.00 | 0.01 | 0.01 | 99 | 1009.8 |
| 20260905124954 | 72 | 349 | 0.0 | 0.9 | 0.00 | 0.01 | 0.01 | 99 | 1009.7 |
| 20260905124451 | 72 | 144 | 0.0 | 0.0 | 0.00 | 0.01 | 0.01 | 99 | 1009.6 |
| 20260905123946 | 72 | 152 | 0.0 | 0.0 | 0.00 | 0.01 | 0.01 | 99 | 1009.6 |
| 20260905123443 | 72 | 281 | 0.0 | 0.0 | 0.00 | 0.01 | 0.01 | 99 | 1009.8 |
| 20260905122942 | 72 | 303 | 0.0 | 0.0 | 0.00 | 0.01 | 0.01 | 99 | 1009.7 |
| 20260905122437 | 72 | 6 | 0.0 | 0.9 | 0.00 | 0.01 | 0.01 | 99 | 1009.5 |
| 20260905121933 | 72 | 272 | 0.0 | 0.9 | 0.00 | 0.01 | 0.01 | 99 | 1009.3 |
| 20260905121428 | 72 | 88 | 0.9 | 0.9 | 0.00 | 0.01 | 0.01 | 99 | 1009.3 |
| 20260905120927 | 72 | 308 | 0.0 | 0.0 | 0.00 | 0.01 | 0.01 | 99 | 1008.8 |
| 20260905120422 | 72 | 311 | 0.0 | 0.0 | 0.00 | 0.01 | 0.01 | 99 | 1009.1 |
| 20260905115916 | 72 | 295 | 0.0 | 0.0 | 0.00 | 0.01 | 0.01 | 99 | 1009.0 |
| 20260905115415 | 72 | 289 | 0.0 | 0.0 | 0.00 | 0.01 | 0.01 | 99 | 1008.8 |
| 20260905114910 | 72 | 284 | 0.0 | 0.0 | 0.00 | 0.01 | 0.01 | 99 | 1008.8 |
| 20260905114410 | 72 | 291 | 0.0 | 0.0 | 0.00 | 0.01 | 0.01 | 99 | 1008.8 |
| 20260905113904 | 72 | 223 | 0.0 | 0.0 | 0.00 | 0.01 | 0.01 | 99 | 1008.7 |
| 20260905113359 | 72 | 247 | 0.0 | 0.0 | 0.00 | 0.01 | 0.01 | 99 | 1008.7 |
| 20260905112854 | 72 | 272 | 0.0 | 0.0 | 0.00 | 0.01 | 0.01 | 99 | 1008.8 |
| 20260905112350 | 72 | 272 | 0.0 | 0.0 | 0.00 | 0.01 | 0.01 | 99 | 1008.6 |
| 20260905111844 | 72 | 262 | 0.0 | 0.0 | 0.00 | 0.01 | 0.01 | 99 | 1008.7 |
| 20260905111338 | 72 | 282 | 0.0 | 0.0 | 0.00 | 0.01 | 0.01 | 99 | 1008.5 |
| 20260905110838 | 72 | 249 | 0.0 | 0.0 | 0.00 | 0.01 | 0.01 | 99 | 1008.3 |
| 20260905110332 | 71 | 251 | 0.0 | 0.0 | 0.00 | 0.01 | 0.01 | 99 | 1008.2 |
| 20260905105827 | 72 | 252 | 0.0 | 0.0 | 0.00 | 0.01 | 0.01 | 99 | 1008.3 |
| 20260905105327 | 71 | 234 | 0.9 | 0.9 | 0.00 | 0.01 | 0.01 | 99 | 1008.4 |
| 20260905104821 | 71 | 306 | 0.0 | 0.0 | 0.00 | 0.01 | 0.01 | 99 | 1008.2 |